Apple Valley, Utah
Current Conditions -  °F | °C
As of 10:15 AM on Thursday 30 Oct 2014 (Local Time) from KAZC Reporting Station
Clear Clear  
Wind Chill: 60°   Ceiling: Unl
Heat Index: 60°   Visibility: 10mi
Dew Point: 25°   Wind: 5mph
Humidity: 26%   Direction: 140°SE
Pressure: 30.3"   Gusts: NA
Location:  37.2274°N, 113.139°W
Report Text: KAZC 301615Z AUTO 14004KT 10SM CLR 16/M04 A3030 RMK AO2 T01561040
Loading
Personal Weather Stations






























Interactive Weather Map
Tropical Storm Tracking
New forecast layout! Learn more

10-Day Weather Forecast

Advertisements
Track Severe Weather on mobile